sensor_id;sensor_type;location;lat;lon;timestamp;P1;durP1;ratioP1;P2;durP2;ratioP2
6372;SDS011;3219;51.362;7.074;2022-12-18T00:01:13;8.77;;;5.57;;
6372;SDS011;3219;51.362;7.074;2022-12-18T00:03:46;9.07;;;6.15;;
6372;SDS011;3219;51.362;7.074;2022-12-18T00:06:14;8.07;;;6.10;;
6372;SDS011;3219;51.362;7.074;2022-12-18T00:08:41;9.48;;;5.93;;
6372;SDS011;3219;51.362;7.074;2022-12-18T00:11:11;8.07;;;5.15;;
6372;SDS011;3219;51.362;7.074;2022-12-18T00:13:43;8.77;;;5.85;;
6372;SDS011;3219;51.362;7.074;2022-12-18T00:16:11;7.95;;;5.57;;
6372;SDS011;3219;51.362;7.074;2022-12-18T00:18:44;8.30;;;5.47;;
6372;SDS011;3219;51.362;7.074;2022-12-18T00:21:16;8.05;;;5.68;;
6372;SDS011;3219;51.362;7.074;2022-12-18T00:23:44;6.55;;;5.10;;
6372;SDS011;3219;51.362;7.074;2022-12-18T00:26:13;8.20;;;5.78;;
6372;SDS011;3219;51.362;7.074;2022-12-18T00:28:41;7.05;;;5.20;;
6372;SDS011;3219;51.362;7.074;2022-12-18T00:31:09;7.72;;;5.72;;
6372;SDS011;3219;51.362;7.074;2022-12-18T00:33:37;9.25;;;5.57;;
6372;SDS011;3219;51.362;7.074;2022-12-18T00:36:07;7.70;;;5.25;;
6372;SDS011;3219;51.362;7.074;2022-12-18T00:38:35;6.80;;;5.17;;
6372;SDS011;3219;51.362;7.074;2022-12-18T00:41:03;9.02;;;5.47;;
6372;SDS011;3219;51.362;7.074;2022-12-18T00:43:30;8.23;;;5.85;;
6372;SDS011;3219;51.362;7.074;2022-12-18T00:45:59;7.13;;;5.28;;
6372;SDS011;3219;51.362;7.074;2022-12-18T00:48:26;8.25;;;5.88;;
6372;SDS011;3219;51.362;7.074;2022-12-18T00:50:53;9.00;;;6.00;;
6372;SDS011;3219;51.362;7.074;2022-12-18T00:53:21;7.88;;;5.72;;
6372;SDS011;3219;51.362;7.074;2022-12-18T00:55:48;10.38;;;6.47;;
6372;SDS011;3219;51.362;7.074;2022-12-18T00:58:15;8.48;;;5.78;;
6372;SDS011;3219;51.362;7.074;2022-12-18T01:00:45;10.23;;;5.82;;
6372;SDS011;3219;51.362;7.074;2022-12-18T01:03:18;8.15;;;5.72;;
6372;SDS011;3219;51.362;7.074;2022-12-18T01:05:48;8.30;;;5.65;;
6372;SDS011;3219;51.362;7.074;2022-12-18T01:08:24;8.07;;;5.47;;
6372;SDS011;3219;51.362;7.074;2022-12-18T01:10:54;7.72;;;5.55;;
6372;SDS011;3219;51.362;7.074;2022-12-18T01:13:25;8.35;;;5.32;;
6372;SDS011;3219;51.362;7.074;2022-12-18T01:15:55;7.72;;;5.63;;
6372;SDS011;3219;51.362;7.074;2022-12-18T01:18:36;7.47;;;5.65;;
6372;SDS011;3219;51.362;7.074;2022-12-18T01:21:11;8.15;;;5.68;;
6372;SDS011;3219;51.362;7.074;2022-12-18T01:23:44;8.52;;;5.45;;
6372;SDS011;3219;51.362;7.074;2022-12-18T01:26:13;7.03;;;5.45;;
6372;SDS011;3219;51.362;7.074;2022-12-18T01:28:45;7.93;;;5.53;;
6372;SDS011;3219;51.362;7.074;2022-12-18T01:31:23;7.97;;;5.35;;
6372;SDS011;3219;51.362;7.074;2022-12-18T01:33:54;8.35;;;5.53;;
6372;SDS011;3219;51.362;7.074;2022-12-18T01:36:27;8.27;;;5.35;;
6372;SDS011;3219;51.362;7.074;2022-12-18T01:38:58;8.23;;;5.20;;
6372;SDS011;3219;51.362;7.074;2022-12-18T01:41:27;6.90;;;5.03;;
6372;SDS011;3219;51.362;7.074;2022-12-18T01:47:23;8.15;;;5.50;;
6372;SDS011;3219;51.362;7.074;2022-12-18T01:49:55;7.28;;;4.93;;
6372;SDS011;3219;51.362;7.074;2022-12-18T01:52:24;11.00;;;5.88;;
6372;SDS011;3219;51.362;7.074;2022-12-18T01:54:55;8.75;;;6.05;;
6372;SDS011;3219;51.362;7.074;2022-12-18T01:57:23;8.05;;;5.25;;
6372;SDS011;3219;51.362;7.074;2022-12-18T01:59:51;10.10;;;5.97;;
6372;SDS011;3219;51.362;7.074;2022-12-18T02:02:22;8.07;;;5.43;;
6372;SDS011;3219;51.362;7.074;2022-12-18T02:04:49;9.05;;;6.20;;
6372;SDS011;3219;51.362;7.074;2022-12-18T02:07:17;7.47;;;5.40;;
6372;SDS011;3219;51.362;7.074;2022-12-18T02:09:54;7.40;;;5.55;;
6372;SDS011;3219;51.362;7.074;2022-12-18T02:12:27;8.82;;;6.38;;
6372;SDS011;3219;51.362;7.074;2022-12-18T02:15:02;8.15;;;5.72;;
6372;SDS011;3219;51.362;7.074;2022-12-18T02:17:36;8.25;;;5.88;;
6372;SDS011;3219;51.362;7.074;2022-12-18T02:20:13;9.05;;;5.63;;
6372;SDS011;3219;51.362;7.074;2022-12-18T02:22:53;8.10;;;6.07;;
6372;SDS011;3219;51.362;7.074;2022-12-18T02:28:42;7.93;;;5.93;;
6372;SDS011;3219;51.362;7.074;2022-12-18T02:31:13;9.60;;;6.30;;
6372;SDS011;3219;51.362;7.074;2022-12-18T02:33:49;9.57;;;6.63;;
6372;SDS011;3219;51.362;7.074;2022-12-18T02:36:24;10.50;;;6.38;;
6372;SDS011;3219;51.362;7.074;2022-12-18T02:38:55;9.77;;;6.18;;
6372;SDS011;3219;51.362;7.074;2022-12-18T02:41:29;7.20;;;5.93;;
6372;SDS011;3219;51.362;7.074;2022-12-18T02:44:06;7.20;;;5.70;;
6372;SDS011;3219;51.362;7.074;2022-12-18T02:46:38;7.78;;;5.78;;
6372;SDS011;3219;51.362;7.074;2022-12-18T02:49:12;9.23;;;6.28;;
6372;SDS011;3219;51.362;7.074;2022-12-18T02:51:50;7.05;;;5.25;;
6372;SDS011;3219;51.362;7.074;2022-12-18T02:54:28;8.32;;;5.30;;
6372;SDS011;3219;51.362;7.074;2022-12-18T02:57:13;8.15;;;6.10;;
6372;SDS011;3219;51.362;7.074;2022-12-18T02:59:50;7.82;;;5.65;;
6372;SDS011;3219;51.362;7.074;2022-12-18T03:02:25;9.05;;;6.13;;
6372;SDS011;3219;51.362;7.074;2022-12-18T03:05:00;9.48;;;6.18;;
6372;SDS011;3219;51.362;7.074;2022-12-18T03:07:37;8.27;;;5.43;;
6372;SDS011;3219;51.362;7.074;2022-12-18T03:10:14;8.65;;;5.72;;
6372;SDS011;3219;51.362;7.074;2022-12-18T03:12:52;7.70;;;5.53;;
6372;SDS011;3219;51.362;7.074;2022-12-18T03:15:27;7.10;;;5.40;;
6372;SDS011;3219;51.362;7.074;2022-12-18T03:18:02;8.52;;;5.15;;
6372;SDS011;3219;51.362;7.074;2022-12-18T03:20:31;8.55;;;4.85;;
6372;SDS011;3219;51.362;7.074;2022-12-18T03:23:04;6.78;;;5.20;;
6372;SDS011;3219;51.362;7.074;2022-12-18T03:25:39;7.57;;;5.18;;
6372;SDS011;3219;51.362;7.074;2022-12-18T03:28:09;7.55;;;5.47;;
6372;SDS011;3219;51.362;7.074;2022-12-18T03:30:43;7.10;;;5.40;;
6372;SDS011;3219;51.362;7.074;2022-12-18T03:33:13;6.15;;;4.75;;
6372;SDS011;3219;51.362;7.074;2022-12-18T03:35:45;9.00;;;5.10;;
6372;SDS011;3219;51.362;7.074;2022-12-18T03:38:12;7.97;;;5.13;;
6372;SDS011;3219;51.362;7.074;2022-12-18T03:40:45;8.15;;;5.63;;
6372;SDS011;3219;51.362;7.074;2022-12-18T03:43:24;7.65;;;5.20;;
6372;SDS011;3219;51.362;7.074;2022-12-18T03:46:02;8.45;;;5.63;;
6372;SDS011;3219;51.362;7.074;2022-12-18T03:48:34;7.22;;;5.45;;
6372;SDS011;3219;51.362;7.074;2022-12-18T03:51:08;7.05;;;4.55;;
6372;SDS011;3219;51.362;7.074;2022-12-18T03:53:41;6.63;;;5.07;;
6372;SDS011;3219;51.362;7.074;2022-12-18T03:56:14;8.35;;;5.57;;
6372;SDS011;3219;51.362;7.074;2022-12-18T03:58:44;6.97;;;5.03;;
6372;SDS011;3219;51.362;7.074;2022-12-18T04:01:15;7.57;;;5.57;;
6372;SDS011;3219;51.362;7.074;2022-12-18T04:03:44;6.35;;;4.88;;
6372;SDS011;3219;51.362;7.074;2022-12-18T04:06:14;7.00;;;5.53;;
6372;SDS011;3219;51.362;7.074;2022-12-18T04:08:42;6.93;;;5.22;;
6372;SDS011;3219;51.362;7.074;2022-12-18T04:11:10;6.72;;;5.00;;
6372;SDS011;3219;51.362;7.074;2022-12-18T04:13:41;7.57;;;5.03;;
6372;SDS011;3219;51.362;7.074;2022-12-18T04:16:10;6.75;;;4.60;;
6372;SDS011;3219;51.362;7.074;2022-12-18T04:18:37;6.68;;;4.70;;
6372;SDS011;3219;51.362;7.074;2022-12-18T04:21:04;8.52;;;5.03;;
6372;SDS011;3219;51.362;7.074;2022-12-18T04:23:31;7.45;;;4.75;;
6372;SDS011;3219;51.362;7.074;2022-12-18T04:25:58;6.40;;;4.75;;
6372;SDS011;3219;51.362;7.074;2022-12-18T04:28:24;7.22;;;4.85;;
6372;SDS011;3219;51.362;7.074;2022-12-18T04:30:51;6.32;;;5.03;;
6372;SDS011;3219;51.362;7.074;2022-12-18T04:33:19;5.57;;;4.22;;
6372;SDS011;3219;51.362;7.074;2022-12-18T04:35:46;6.00;;;4.40;;
6372;SDS011;3219;51.362;7.074;2022-12-18T04:38:13;6.13;;;4.53;;
6372;SDS011;3219;51.362;7.074;2022-12-18T04:40:40;6.80;;;4.93;;
6372;SDS011;3219;51.362;7.074;2022-12-18T04:43:07;7.03;;;5.55;;
6372;SDS011;3219;51.362;7.074;2022-12-18T04:45:34;6.50;;;4.40;;
6372;SDS011;3219;51.362;7.074;2022-12-18T04:48:00;6.63;;;4.68;;
6372;SDS011;3219;51.362;7.074;2022-12-18T04:50:30;4.93;;;4.25;;
6372;SDS011;3219;51.362;7.074;2022-12-18T04:52:57;6.30;;;4.47;;
6372;SDS011;3219;51.362;7.074;2022-12-18T04:55:24;6.32;;;4.50;;
6372;SDS011;3219;51.362;7.074;2022-12-18T04:57:51;5.10;;;4.32;;
6372;SDS011;3219;51.362;7.074;2022-12-18T05:00:18;6.18;;;4.75;;
6372;SDS011;3219;51.362;7.074;2022-12-18T05:02:45;6.57;;;4.45;;
6372;SDS011;3219;51.362;7.074;2022-12-18T05:05:12;4.80;;;3.85;;
6372;SDS011;3219;51.362;7.074;2022-12-18T05:07:40;7.53;;;4.97;;
6372;SDS011;3219;51.362;7.074;2022-12-18T05:10:07;5.78;;;4.57;;
6372;SDS011;3219;51.362;7.074;2022-12-18T05:12:34;5.97;;;4.55;;
6372;SDS011;3219;51.362;7.074;2022-12-18T05:15:22;6.50;;;4.35;;
6372;SDS011;3219;51.362;7.074;2022-12-18T05:17:49;5.28;;;4.22;;
6372;SDS011;3219;51.362;7.074;2022-12-18T05:20:15;5.53;;;4.25;;
6372;SDS011;3219;51.362;7.074;2022-12-18T05:22:44;6.20;;;4.25;;
6372;SDS011;3219;51.362;7.074;2022-12-18T05:25:11;7.05;;;4.10;;
6372;SDS011;3219;51.362;7.074;2022-12-18T05:27:38;7.68;;;4.00;;
6372;SDS011;3219;51.362;7.074;2022-12-18T05:30:05;6.82;;;4.50;;
6372;SDS011;3219;51.362;7.074;2022-12-18T05:32:33;5.65;;;3.92;;
6372;SDS011;3219;51.362;7.074;2022-12-18T05:35:00;5.55;;;4.47;;
6372;SDS011;3219;51.362;7.074;2022-12-18T05:37:27;5.53;;;4.18;;
6372;SDS011;3219;51.362;7.074;2022-12-18T05:39:55;4.80;;;3.80;;
6372;SDS011;3219;51.362;7.074;2022-12-18T05:42:22;5.45;;;3.85;;
6372;SDS011;3219;51.362;7.074;2022-12-18T05:44:48;5.72;;;4.20;;
6372;SDS011;3219;51.362;7.074;2022-12-18T05:47:15;5.28;;;3.70;;
6372;SDS011;3219;51.362;7.074;2022-12-18T05:49:42;5.55;;;3.92;;
6372;SDS011;3219;51.362;7.074;2022-12-18T05:52:09;5.57;;;4.25;;
6372;SDS011;3219;51.362;7.074;2022-12-18T05:54:36;5.05;;;4.03;;
6372;SDS011;3219;51.362;7.074;2022-12-18T05:57:05;5.85;;;4.03;;
6372;SDS011;3219;51.362;7.074;2022-12-18T05:59:32;6.88;;;4.35;;
6372;SDS011;3219;51.362;7.074;2022-12-18T06:01:59;5.45;;;4.18;;
6372;SDS011;3219;51.362;7.074;2022-12-18T06:04:26;5.50;;;3.70;;
6372;SDS011;3219;51.362;7.074;2022-12-18T06:06:53;5.97;;;3.75;;
6372;SDS011;3219;51.362;7.074;2022-12-18T06:09:20;7.10;;;4.57;;
6372;SDS011;3219;51.362;7.074;2022-12-18T06:11:47;6.15;;;3.97;;
6372;SDS011;3219;51.362;7.074;2022-12-18T06:14:15;4.70;;;3.78;;
6372;SDS011;3219;51.362;7.074;2022-12-18T06:16:43;6.50;;;3.95;;
6372;SDS011;3219;51.362;7.074;2022-12-18T06:19:12;5.18;;;4.00;;
6372;SDS011;3219;51.362;7.074;2022-12-18T06:21:40;5.43;;;3.92;;
6372;SDS011;3219;51.362;7.074;2022-12-18T06:24:07;4.25;;;3.45;;
6372;SDS011;3219;51.362;7.074;2022-12-18T06:26:36;5.20;;;4.00;;
6372;SDS011;3219;51.362;7.074;2022-12-18T06:29:03;5.68;;;3.75;;
6372;SDS011;3219;51.362;7.074;2022-12-18T06:31:31;5.10;;;3.67;;
6372;SDS011;3219;51.362;7.074;2022-12-18T06:33:58;6.60;;;4.15;;
6372;SDS011;3219;51.362;7.074;2022-12-18T06:36:27;5.75;;;3.70;;
6372;SDS011;3219;51.362;7.074;2022-12-18T06:38:54;5.10;;;3.30;;
6372;SDS011;3219;51.362;7.074;2022-12-18T06:41:22;6.07;;;3.58;;
6372;SDS011;3219;51.362;7.074;2022-12-18T06:43:49;5.82;;;3.85;;
6372;SDS011;3219;51.362;7.074;2022-12-18T06:46:16;5.63;;;4.03;;
6372;SDS011;3219;51.362;7.074;2022-12-18T06:48:47;4.72;;;3.67;;
6372;SDS011;3219;51.362;7.074;2022-12-18T06:51:16;4.85;;;3.72;;
6372;SDS011;3219;51.362;7.074;2022-12-18T06:53:43;5.82;;;4.30;;
6372;SDS011;3219;51.362;7.074;2022-12-18T06:56:10;5.60;;;3.65;;
6372;SDS011;3219;51.362;7.074;2022-12-18T06:58:37;7.22;;;4.30;;
6372;SDS011;3219;51.362;7.074;2022-12-18T07:01:05;6.50;;;4.22;;
6372;SDS011;3219;51.362;7.074;2022-12-18T07:03:36;5.78;;;4.00;;
6372;SDS011;3219;51.362;7.074;2022-12-18T07:06:06;5.22;;;3.97;;
6372;SDS011;3219;51.362;7.074;2022-12-18T07:08:38;6.63;;;4.47;;
6372;SDS011;3219;51.362;7.074;2022-12-18T07:11:14;6.03;;;4.35;;
6372;SDS011;3219;51.362;7.074;2022-12-18T07:13:42;6.68;;;4.65;;
6372;SDS011;3219;51.362;7.074;2022-12-18T07:16:20;6.75;;;4.35;;
6372;SDS011;3219;51.362;7.074;2022-12-18T07:18:50;6.68;;;4.65;;
6372;SDS011;3219;51.362;7.074;2022-12-18T07:21:25;5.47;;;3.83;;
6372;SDS011;3219;51.362;7.074;2022-12-18T07:23:54;6.82;;;4.88;;
6372;SDS011;3219;51.362;7.074;2022-12-18T07:26:27;6.55;;;4.45;;
6372;SDS011;3219;51.362;7.074;2022-12-18T07:29:03;6.78;;;4.75;;
6372;SDS011;3219;51.362;7.074;2022-12-18T07:31:35;7.45;;;4.78;;
6372;SDS011;3219;51.362;7.074;2022-12-18T07:34:02;6.55;;;4.63;;
6372;SDS011;3219;51.362;7.074;2022-12-18T07:36:35;7.07;;;4.78;;
6372;SDS011;3219;51.362;7.074;2022-12-18T07:39:02;8.07;;;5.55;;
6372;SDS011;3219;51.362;7.074;2022-12-18T07:41:36;7.57;;;5.03;;
6372;SDS011;3219;51.362;7.074;2022-12-18T07:44:15;5.82;;;4.30;;
6372;SDS011;3219;51.362;7.074;2022-12-18T07:46:45;5.97;;;4.32;;
6372;SDS011;3219;51.362;7.074;2022-12-18T07:49:15;6.53;;;4.75;;
6372;SDS011;3219;51.362;7.074;2022-12-18T07:51:45;6.35;;;4.78;;
6372;SDS011;3219;51.362;7.074;2022-12-18T07:54:14;5.68;;;4.13;;
6372;SDS011;3219;51.362;7.074;2022-12-18T07:56:47;7.07;;;4.82;;
6372;SDS011;3219;51.362;7.074;2022-12-18T07:59:23;6.72;;;4.57;;
6372;SDS011;3219;51.362;7.074;2022-12-18T08:01:58;6.15;;;4.40;;
6372;SDS011;3219;51.362;7.074;2022-12-18T08:04:26;6.35;;;4.13;;
6372;SDS011;3219;51.362;7.074;2022-12-18T08:06:57;6.38;;;4.28;;
6372;SDS011;3219;51.362;7.074;2022-12-18T08:12:08;6.95;;;4.38;;
6372;SDS011;3219;51.362;7.074;2022-12-18T08:14:35;6.38;;;4.30;;
6372;SDS011;3219;51.362;7.074;2022-12-18T08:17:04;5.40;;;3.88;;
6372;SDS011;3219;51.362;7.074;2022-12-18T08:19:33;7.75;;;4.38;;
6372;SDS011;3219;51.362;7.074;2022-12-18T08:22:10;6.75;;;4.10;;
6372;SDS011;3219;51.362;7.074;2022-12-18T08:24:41;7.50;;;4.47;;
6372;SDS011;3219;51.362;7.074;2022-12-18T08:27:09;6.32;;;4.28;;
6372;SDS011;3219;51.362;7.074;2022-12-18T08:29:39;6.88;;;4.40;;
6372;SDS011;3219;51.362;7.074;2022-12-18T08:32:07;6.50;;;4.47;;
6372;SDS011;3219;51.362;7.074;2022-12-18T08:34:39;7.63;;;4.70;;
6372;SDS011;3219;51.362;7.074;2022-12-18T08:37:08;5.38;;;4.15;;
6372;SDS011;3219;51.362;7.074;2022-12-18T08:39:35;6.93;;;4.68;;
6372;SDS011;3219;51.362;7.074;2022-12-18T08:42:04;5.45;;;4.20;;
6372;SDS011;3219;51.362;7.074;2022-12-18T08:44:48;5.63;;;4.32;;
6372;SDS011;3219;51.362;7.074;2022-12-18T08:47:29;6.65;;;4.78;;
6372;SDS011;3219;51.362;7.074;2022-12-18T08:49:59;6.63;;;4.63;;
6372;SDS011;3219;51.362;7.074;2022-12-18T08:52:32;5.97;;;4.57;;
6372;SDS011;3219;51.362;7.074;2022-12-18T08:55:01;6.97;;;4.03;;
6372;SDS011;3219;51.362;7.074;2022-12-18T08:57:28;5.72;;;4.45;;
6372;SDS011;3219;51.362;7.074;2022-12-18T08:59:58;6.57;;;4.82;;
6372;SDS011;3219;51.362;7.074;2022-12-18T09:02:27;6.57;;;4.55;;
6372;SDS011;3219;51.362;7.074;2022-12-18T09:04:54;5.55;;;4.57;;
6372;SDS011;3219;51.362;7.074;2022-12-18T09:07:24;6.68;;;4.97;;
6372;SDS011;3219;51.362;7.074;2022-12-18T09:09:53;7.22;;;4.53;;
6372;SDS011;3219;51.362;7.074;2022-12-18T09:12:24;5.35;;;4.32;;
6372;SDS011;3219;51.362;7.074;2022-12-18T09:14:52;5.88;;;4.38;;
6372;SDS011;3219;51.362;7.074;2022-12-18T09:17:26;7.18;;;4.65;;
6372;SDS011;3219;51.362;7.074;2022-12-18T09:19:53;5.15;;;4.25;;
6372;SDS011;3219;51.362;7.074;2022-12-18T09:22:20;5.15;;;4.22;;
6372;SDS011;3219;51.362;7.074;2022-12-18T09:24:48;9.23;;;4.35;;
6372;SDS011;3219;51.362;7.074;2022-12-18T09:27:18;8.70;;;4.75;;
6372;SDS011;3219;51.362;7.074;2022-12-18T09:29:45;7.82;;;4.85;;
6372;SDS011;3219;51.362;7.074;2022-12-18T09:32:15;6.43;;;4.85;;
6372;SDS011;3219;51.362;7.074;2022-12-18T09:34:42;4.68;;;3.97;;
6372;SDS011;3219;51.362;7.074;2022-12-18T09:37:09;6.80;;;4.20;;
6372;SDS011;3219;51.362;7.074;2022-12-18T09:39:36;7.13;;;4.07;;
6372;SDS011;3219;51.362;7.074;2022-12-18T09:42:04;6.80;;;4.40;;
6372;SDS011;3219;51.362;7.074;2022-12-18T09:44:34;7.30;;;4.13;;
6372;SDS011;3219;51.362;7.074;2022-12-18T09:47:07;5.05;;;3.95;;
6372;SDS011;3219;51.362;7.074;2022-12-18T09:49:39;6.10;;;4.03;;
6372;SDS011;3219;51.362;7.074;2022-12-18T09:52:09;5.00;;;3.83;;
6372;SDS011;3219;51.362;7.074;2022-12-18T09:54:42;5.28;;;3.55;;
6372;SDS011;3219;51.362;7.074;2022-12-18T09:57:13;4.53;;;3.40;;
6372;SDS011;3219;51.362;7.074;2022-12-18T09:59:44;5.22;;;3.58;;
6372;SDS011;3219;51.362;7.074;2022-12-18T10:02:15;5.45;;;3.58;;
6372;SDS011;3219;51.362;7.074;2022-12-18T10:04:44;5.53;;;3.72;;
6372;SDS011;3219;51.362;7.074;2022-12-18T10:07:19;4.53;;;3.45;;
6372;SDS011;3219;51.362;7.074;2022-12-18T10:09:51;4.57;;;3.60;;
6372;SDS011;3219;51.362;7.074;2022-12-18T10:12:25;5.32;;;3.65;;
6372;SDS011;3219;51.362;7.074;2022-12-18T10:15:01;4.82;;;3.50;;
6372;SDS011;3219;51.362;7.074;2022-12-18T10:17:34;5.15;;;3.70;;
6372;SDS011;3219;51.362;7.074;2022-12-18T10:20:10;4.97;;;3.92;;
6372;SDS011;3219;51.362;7.074;2022-12-18T10:22:48;6.72;;;4.20;;
6372;SDS011;3219;51.362;7.074;2022-12-18T10:25:23;5.68;;;3.72;;
6372;SDS011;3219;51.362;7.074;2022-12-18T10:27:55;6.07;;;4.10;;
6372;SDS011;3219;51.362;7.074;2022-12-18T10:30:27;4.30;;;3.53;;
6372;SDS011;3219;51.362;7.074;2022-12-18T10:32:58;7.40;;;4.60;;
6372;SDS011;3219;51.362;7.074;2022-12-18T10:35:30;4.90;;;3.90;;
6372;SDS011;3219;51.362;7.074;2022-12-18T10:38:00;5.25;;;3.70;;
6372;SDS011;3219;51.362;7.074;2022-12-18T10:40:32;5.30;;;4.03;;
6372;SDS011;3219;51.362;7.074;2022-12-18T10:43:15;6.03;;;4.00;;
6372;SDS011;3219;51.362;7.074;2022-12-18T10:49:04;6.07;;;4.22;;
6372;SDS011;3219;51.362;7.074;2022-12-18T10:51:37;5.90;;;3.90;;
6372;SDS011;3219;51.362;7.074;2022-12-18T10:54:12;5.65;;;3.90;;
6372;SDS011;3219;51.362;7.074;2022-12-18T11:03:07;5.93;;;4.30;;
6372;SDS011;3219;51.362;7.074;2022-12-18T11:06:09;5.63;;;4.22;;
6372;SDS011;3219;51.362;7.074;2022-12-18T11:08:56;5.32;;;4.00;;
6372;SDS011;3219;51.362;7.074;2022-12-18T11:11:41;7.25;;;4.22;;
6372;SDS011;3219;51.362;7.074;2022-12-18T11:14:18;4.60;;;4.00;;
6372;SDS011;3219;51.362;7.074;2022-12-18T11:16:48;8.05;;;4.30;;
6372;SDS011;3219;51.362;7.074;2022-12-18T11:19:21;6.72;;;4.32;;
6372;SDS011;3219;51.362;7.074;2022-12-18T11:22:02;6.18;;;4.22;;
6372;SDS011;3219;51.362;7.074;2022-12-18T11:24:50;4.70;;;3.70;;
6372;SDS011;3219;51.362;7.074;2022-12-18T11:27:19;6.20;;;4.20;;
6372;SDS011;3219;51.362;7.074;2022-12-18T11:29:47;6.68;;;4.57;;
6372;SDS011;3219;51.362;7.074;2022-12-18T11:35:11;6.20;;;4.32;;
6372;SDS011;3219;51.362;7.074;2022-12-18T11:37:45;7.43;;;4.55;;
6372;SDS011;3219;51.362;7.074;2022-12-18T11:40:17;7.75;;;4.70;;
6372;SDS011;3219;51.362;7.074;2022-12-18T11:45:26;8.60;;;4.80;;
6372;SDS011;3219;51.362;7.074;2022-12-18T11:48:00;5.93;;;4.30;;
6372;SDS011;3219;51.362;7.074;2022-12-18T11:50:32;8.73;;;4.88;;
6372;SDS011;3219;51.362;7.074;2022-12-18T11:53:11;7.05;;;5.10;;
6372;SDS011;3219;51.362;7.074;2022-12-18T11:55:40;5.68;;;4.35;;
6372;SDS011;3219;51.362;7.074;2022-12-18T11:58:15;6.60;;;4.57;;
6372;SDS011;3219;51.362;7.074;2022-12-18T12:00:52;8.55;;;4.82;;
6372;SDS011;3219;51.362;7.074;2022-12-18T12:06:36;7.45;;;4.93;;
6372;SDS011;3219;51.362;7.074;2022-12-18T12:09:17;7.53;;;4.30;;
6372;SDS011;3219;51.362;7.074;2022-12-18T12:11:58;9.80;;;5.18;;
6372;SDS011;3219;51.362;7.074;2022-12-18T12:14:36;7.05;;;5.63;;
6372;SDS011;3219;51.362;7.074;2022-12-18T12:17:15;6.30;;;4.95;;
6372;SDS011;3219;51.362;7.074;2022-12-18T12:19:52;7.10;;;5.05;;
6372;SDS011;3219;51.362;7.074;2022-12-18T12:22:27;7.50;;;5.30;;
6372;SDS011;3219;51.362;7.074;2022-12-18T12:27:59;10.38;;;5.53;;
6372;SDS011;3219;51.362;7.074;2022-12-18T12:30:39;8.27;;;5.60;;
6372;SDS011;3219;51.362;7.074;2022-12-18T12:33:17;9.75;;;6.05;;
6372;SDS011;3219;51.362;7.074;2022-12-18T12:35:56;8.60;;;5.90;;
6372;SDS011;3219;51.362;7.074;2022-12-18T12:38:34;8.57;;;5.75;;
6372;SDS011;3219;51.362;7.074;2022-12-18T12:41:09;8.32;;;5.78;;
6372;SDS011;3219;51.362;7.074;2022-12-18T12:43:54;11.00;;;6.28;;
6372;SDS011;3219;51.362;7.074;2022-12-18T12:46:24;7.78;;;6.03;;
6372;SDS011;3219;51.362;7.074;2022-12-18T12:48:52;8.75;;;6.30;;
6372;SDS011;3219;51.362;7.074;2022-12-18T12:51:22;12.02;;;7.72;;
6372;SDS011;3219;51.362;7.074;2022-12-18T12:53:51;12.68;;;6.75;;
6372;SDS011;3219;51.362;7.074;2022-12-18T12:56:21;9.82;;;7.25;;
6372;SDS011;3219;51.362;7.074;2022-12-18T12:58:54;11.82;;;7.40;;
6372;SDS011;3219;51.362;7.074;2022-12-18T13:01:30;10.50;;;7.35;;
6372;SDS011;3219;51.362;7.074;2022-12-18T13:04:04;10.40;;;7.20;;
6372;SDS011;3219;51.362;7.074;2022-12-18T13:06:40;10.77;;;7.57;;
6372;SDS011;3219;51.362;7.074;2022-12-18T13:09:12;11.88;;;7.97;;
6372;SDS011;3219;51.362;7.074;2022-12-18T13:11:41;11.85;;;8.23;;
6372;SDS011;3219;51.362;7.074;2022-12-18T13:14:28;11.00;;;7.65;;
6372;SDS011;3219;51.362;7.074;2022-12-18T13:20:04;12.63;;;8.82;;
6372;SDS011;3219;51.362;7.074;2022-12-18T13:22:34;12.13;;;8.07;;
6372;SDS011;3219;51.362;7.074;2022-12-18T13:25:03;11.57;;;8.40;;
6372;SDS011;3219;51.362;7.074;2022-12-18T13:27:59;13.18;;;8.95;;
6372;SDS011;3219;51.362;7.074;2022-12-18T13:30:43;12.10;;;8.25;;
6372;SDS011;3219;51.362;7.074;2022-12-18T13:33:38;12.15;;;8.98;;
6372;SDS011;3219;51.362;7.074;2022-12-18T13:36:14;14.25;;;8.70;;
6372;SDS011;3219;51.362;7.074;2022-12-18T13:39:08;13.82;;;9.23;;
6372;SDS011;3219;51.362;7.074;2022-12-18T13:41:51;12.52;;;9.35;;
6372;SDS011;3219;51.362;7.074;2022-12-18T13:44:25;14.48;;;9.82;;
6372;SDS011;3219;51.362;7.074;2022-12-18T13:46:57;14.05;;;9.32;;
6372;SDS011;3219;51.362;7.074;2022-12-18T13:49:26;13.60;;;9.90;;
6372;SDS011;3219;51.362;7.074;2022-12-18T13:51:59;12.45;;;9.05;;
6372;SDS011;3219;51.362;7.074;2022-12-18T13:54:28;13.02;;;9.43;;
6372;SDS011;3219;51.362;7.074;2022-12-18T13:57:00;15.52;;;9.35;;
6372;SDS011;3219;51.362;7.074;2022-12-18T13:59:35;14.23;;;10.27;;
6372;SDS011;3219;51.362;7.074;2022-12-18T14:02:07;14.38;;;9.77;;
6372;SDS011;3219;51.362;7.074;2022-12-18T14:04:39;13.75;;;9.73;;
6372;SDS011;3219;51.362;7.074;2022-12-18T14:07:07;13.55;;;10.07;;
6372;SDS011;3219;51.362;7.074;2022-12-18T14:09:39;14.88;;;10.07;;
6372;SDS011;3219;51.362;7.074;2022-12-18T14:12:14;16.48;;;10.10;;
6372;SDS011;3219;51.362;7.074;2022-12-18T14:15:02;17.75;;;10.45;;
6372;SDS011;3219;51.362;7.074;2022-12-18T14:17:33;15.77;;;10.48;;
6372;SDS011;3219;51.362;7.074;2022-12-18T14:20:02;20.40;;;11.05;;
6372;SDS011;3219;51.362;7.074;2022-12-18T14:22:29;16.13;;;10.07;;
6372;SDS011;3219;51.362;7.074;2022-12-18T14:25:14;16.15;;;10.15;;
6372;SDS011;3219;51.362;7.074;2022-12-18T14:27:44;13.50;;;10.48;;
6372;SDS011;3219;51.362;7.074;2022-12-18T14:30:27;16.13;;;10.20;;
6372;SDS011;3219;51.362;7.074;2022-12-18T14:33:02;15.75;;;10.38;;
6372;SDS011;3219;51.362;7.074;2022-12-18T14:35:30;17.52;;;11.93;;
6372;SDS011;3219;51.362;7.074;2022-12-18T14:38:09;15.70;;;10.80;;
6372;SDS011;3219;51.362;7.074;2022-12-18T14:40:57;16.27;;;10.55;;
6372;SDS011;3219;51.362;7.074;2022-12-18T14:43:25;15.70;;;11.35;;
6372;SDS011;3219;51.362;7.074;2022-12-18T14:45:55;16.90;;;11.38;;
6372;SDS011;3219;51.362;7.074;2022-12-18T14:48:25;16.83;;;12.00;;
6372;SDS011;3219;51.362;7.074;2022-12-18T14:51:04;15.40;;;11.15;;
6372;SDS011;3219;51.362;7.074;2022-12-18T14:53:34;15.98;;;12.05;;
6372;SDS011;3219;51.362;7.074;2022-12-18T14:56:03;17.45;;;12.80;;
6372;SDS011;3219;51.362;7.074;2022-12-18T14:58:39;17.15;;;11.75;;
6372;SDS011;3219;51.362;7.074;2022-12-18T15:01:23;16.35;;;11.57;;
6372;SDS011;3219;51.362;7.074;2022-12-18T15:03:53;18.10;;;12.77;;
6372;SDS011;3219;51.362;7.074;2022-12-18T15:06:25;16.75;;;12.00;;
6372;SDS011;3219;51.362;7.074;2022-12-18T15:08:55;16.98;;;11.60;;
6372;SDS011;3219;51.362;7.074;2022-12-18T15:11:26;20.27;;;12.30;;
6372;SDS011;3219;51.362;7.074;2022-12-18T15:14:30;16.80;;;12.23;;
6372;SDS011;3219;51.362;7.074;2022-12-18T15:17:01;17.85;;;12.45;;
6372;SDS011;3219;51.362;7.074;2022-12-18T15:19:37;20.05;;;12.90;;
6372;SDS011;3219;51.362;7.074;2022-12-18T15:22:14;23.33;;;12.95;;
6372;SDS011;3219;51.362;7.074;2022-12-18T15:24:46;17.67;;;12.63;;
6372;SDS011;3219;51.362;7.074;2022-12-18T15:27:24;22.42;;;13.80;;
6372;SDS011;3219;51.362;7.074;2022-12-18T15:30:16;20.27;;;13.93;;
6372;SDS011;3219;51.362;7.074;2022-12-18T15:32:46;21.13;;;13.63;;
6372;SDS011;3219;51.362;7.074;2022-12-18T15:35:15;22.90;;;14.00;;
6372;SDS011;3219;51.362;7.074;2022-12-18T15:37:44;21.52;;;13.90;;
6372;SDS011;3219;51.362;7.074;2022-12-18T15:40:12;19.60;;;14.15;;
6372;SDS011;3219;51.362;7.074;2022-12-18T15:42:40;20.35;;;13.38;;
6372;SDS011;3219;51.362;7.074;2022-12-18T15:45:25;16.75;;;12.45;;
6372;SDS011;3219;51.362;7.074;2022-12-18T15:47:53;21.00;;;14.35;;
6372;SDS011;3219;51.362;7.074;2022-12-18T15:50:20;20.48;;;13.93;;
6372;SDS011;3219;51.362;7.074;2022-12-18T15:52:48;23.02;;;14.13;;
6372;SDS011;3219;51.362;7.074;2022-12-18T15:55:18;19.05;;;13.10;;
6372;SDS011;3219;51.362;7.074;2022-12-18T15:58:04;18.92;;;13.38;;
6372;SDS011;3219;51.362;7.074;2022-12-18T16:00:31;20.33;;;13.55;;
6372;SDS011;3219;51.362;7.074;2022-12-18T16:03:01;21.20;;;14.07;;
6372;SDS011;3219;51.362;7.074;2022-12-18T16:05:29;24.15;;;14.93;;
6372;SDS011;3219;51.362;7.074;2022-12-18T16:07:56;24.67;;;15.05;;
6372;SDS011;3219;51.362;7.074;2022-12-18T16:10:24;20.83;;;14.80;;
6372;SDS011;3219;51.362;7.074;2022-12-18T16:12:52;20.17;;;14.45;;